Time,TemperatureF,DewpointF,PressureIn,WindDirection,WindDirectionDegrees,WindSpeedMPH,WindSpeedGustMPH,Humidity,HourlyPrecipIn,Conditions,Clouds,dailyrainin,SoftwareType,DateUTC
2013-10-23 00:00:00,58.0,43.3,29.85,NNW,338,2.0,6.0,58,0.00,,---,0.00,VWS V14.01,2013-10-23 07:00:00,
2013-10-23 00:15:00,57.8,42.7,29.86,NNW,338,0.0,2.0,57,0.00,,---,0.00,VWS V14.01,2013-10-23 07:15:00,
2013-10-23 00:30:00,57.4,40.9,29.86,NNW,338,0.0,0.0,54,0.00,,---,0.00,VWS V14.01,2013-10-23 07:30:00,
2013-10-23 00:45:00,56.6,42.0,29.86,NNW,338,0.0,0.0,58,0.00,,---,0.00,VWS V14.01,2013-10-23 07:45:00,
2013-10-23 01:00:00,56.1,43.3,29.86,NNW,338,0.0,0.0,62,0.00,,---,0.00,VWS V14.01,2013-10-23 08:00:00,
2013-10-23 01:15:00,55.7,43.3,29.86,NNW,338,0.0,0.0,63,0.00,,---,0.00,VWS V14.01,2013-10-23 08:15:00,
2013-10-23 01:30:00,55.4,43.8,29.86,NNW,338,0.0,0.0,65,0.00,,---,0.00,VWS V14.01,2013-10-23 08:30:00,
2013-10-23 01:45:00,55.1,43.6,29.86,NNW,338,0.0,0.0,65,0.00,,---,0.00,VWS V14.01,2013-10-23 08:45:00,
2013-10-23 02:00:00,54.8,43.3,29.86,NNW,338,0.0,0.0,65,0.00,,---,0.00,VWS V14.01,2013-10-23 09:00:00,
2013-10-23 02:15:00,54.4,42.5,29.86,NNW,338,0.0,4.0,64,0.00,,---,0.00,VWS V14.01,2013-10-23 09:15:00,
2013-10-23 02:30:00,53.8,42.3,29.86,NNW,338,1.0,4.0,65,0.00,,---,0.00,VWS V14.01,2013-10-23 09:30:00,
2013-10-23 02:45:00,53.3,42.2,29.86,NNW,338,0.0,2.0,66,0.00,,---,0.00,VWS V14.01,2013-10-23 09:45:00,
2013-10-23 03:00:00,52.8,42.2,29.86,NNW,338,1.0,4.0,67,0.00,,---,0.00,VWS V14.01,2013-10-23 10:00:00,
2013-10-23 03:15:00,52.4,42.2,29.86,NNW,338,1.0,4.0,68,0.00,,---,0.00,VWS V14.01,2013-10-23 10:15:00,
2013-10-23 03:30:00,52.2,42.0,29.86,NNW,338,1.0,4.0,68,0.00,,---,0.00,VWS V14.01,2013-10-23 10:30:00,
2013-10-23 03:45:00,51.9,42.1,29.85,NNW,338,0.0,0.0,69,0.00,,---,0.00,VWS V14.01,2013-10-23 10:45:00,
2013-10-23 04:00:00,51.4,38.8,29.85,NNW,338,0.0,0.0,62,0.00,,---,0.00,VWS V14.01,2013-10-23 11:00:00,
2013-10-23 04:15:00,50.9,38.8,29.85,NNW,338,0.0,0.0,63,0.00,,---,0.00,VWS V14.01,2013-10-23 11:15:00,
2013-10-23 04:30:00,50.5,39.6,29.86,NNW,338,1.0,4.0,66,0.00,,---,0.00,VWS V14.01,2013-10-23 11:30:00,
2013-10-23 04:45:00,50.1,40.0,29.86,NNW,338,0.0,4.0,68,0.00,,---,0.00,VWS V14.01,2013-10-23 11:45:00,
2013-10-23 05:00:00,49.8,40.4,29.86,NNW,338,1.0,2.0,70,0.00,,---,0.00,VWS V14.01,2013-10-23 12:00:00,
2013-10-23 05:15:00,49.6,40.6,29.86,NNW,338,1.0,2.0,71,0.00,,---,0.00,VWS V14.01,2013-10-23 12:15:00,
2013-10-23 05:30:00,49.4,40.8,29.87,NNW,338,0.0,2.0,72,0.00,,---,0.00,VWS V14.01,2013-10-23 12:30:00,
2013-10-23 05:45:00,49.2,40.6,29.87,NNW,338,0.0,2.0,72,0.00,,---,0.00,VWS V14.01,2013-10-23 12:45:00,
2013-10-23 06:00:00,48.6,37.4,29.87,NNW,338,0.0,2.0,65,0.00,,---,0.00,VWS V14.01,2013-10-23 13:00:00,
2013-10-23 06:15:00,48.1,38.0,29.87,NNW,338,0.0,0.0,68,0.00,,---,0.00,VWS V14.01,2013-10-23 13:15:00,
2013-10-23 06:30:00,48.0,39.1,29.87,NNW,338,0.0,4.0,71,0.00,,---,0.00,VWS V14.01,2013-10-23 13:30:00,
2013-10-23 06:45:00,47.9,39.7,29.87,NNW,338,1.0,4.0,73,0.00,,---,0.00,VWS V14.01,2013-10-23 13:45:00,
2013-10-23 07:00:00,47.7,39.5,29.87,NNW,338,1.0,2.0,73,0.00,,---,0.00,VWS V14.01,2013-10-23 14:00:00,
2013-10-23 07:15:00,47.5,39.6,29.87,NNW,338,0.0,0.0,74,0.00,,---,0.00,VWS V14.01,2013-10-23 14:15:00,
2013-10-23 07:30:00,47.3,39.1,29.88,NNW,338,0.0,0.0,73,0.00,,---,0.00,VWS V14.01,2013-10-23 14:30:00,
2013-10-23 07:45:00,46.9,36.9,29.88,NNW,342,0.0,0.0,68,0.00,,---,0.00,VWS V14.01,2013-10-23 14:45:00,
2013-10-23 07:48:00,46.9,36.9,29.88,NNW,342,0.0,0.0,68,0.00,,---,0.00,VWS V14.01,2013-10-23 14:48:00,
2013-10-23 07:53:00,46.8,36.4,29.88,NNW,342,0.0,0.0,67,0.00,,---,0.00,VWS V14.01,2013-10-23 14:53:00,
2013-10-23 07:58:00,46.8,37.2,29.88,NNW,342,0.0,0.0,69,0.00,,---,0.00,VWS V14.01,2013-10-23 14:58:00,
2013-10-23 08:00:00,47.7,39.5,29.87,NNW,338,1.0,2.0,73,0.00,,---,0.00,VWS V14.01,2013-10-23 15:00:00,
2013-10-23 08:03:00,47.1,37.8,29.88,NNW,342,0.0,0.0,70,0.00,,---,0.00,VWS V14.01,2013-10-23 15:03:00,
2013-10-23 08:08:00,47.5,38.6,29.88,NNW,342,0.0,0.0,71,0.00,,---,0.00,VWS V14.01,2013-10-23 15:08:00,
2013-10-23 08:13:00,47.9,39.0,29.88,NNW,342,0.0,0.0,71,0.00,,---,0.00,VWS V14.01,2013-10-23 15:13:00,
2013-10-23 08:15:00,47.5,39.6,29.87,NNW,338,0.0,0.0,74,0.00,,---,0.00,VWS V14.01,2013-10-23 15:15:00,
2013-10-23 08:18:00,48.5,39.5,29.89,NNW,342,0.0,0.0,71,0.00,,---,0.00,VWS V14.01,2013-10-23 15:18:00,
2013-10-23 08:23:00,49.1,40.1,29.89,NNW,342,0.0,0.0,71,0.00,,---,0.00,VWS V14.01,2013-10-23 15:23:00,
2013-10-23 08:28:00,49.8,40.4,29.89,NNW,345,0.0,0.0,70,0.00,,---,0.00,VWS V14.01,2013-10-23 15:28:00,
2013-10-23 08:30:00,47.3,39.1,29.88,NNW,338,0.0,0.0,73,0.00,,---,0.00,VWS V14.01,2013-10-23 15:30:00,
2013-10-23 08:33:00,50.6,41.2,29.89,NNW,333,0.0,0.0,70,0.00,,---,0.00,VWS V14.01,2013-10-23 15:33:00,
2013-10-23 08:38:00,51.5,41.7,29.89,NNW,333,0.0,0.0,69,0.00,,---,0.00,VWS V14.01,2013-10-23 15:38:00,
2013-10-23 08:43:00,52.5,41.5,29.89,NNW,333,0.0,0.0,66,0.00,,---,0.00,VWS V14.01,2013-10-23 15:43:00,
2013-10-23 08:45:00,46.9,36.9,29.88,NNW,342,0.0,0.0,68,0.00,,---,0.00,VWS V14.01,2013-10-23 15:45:00,
2013-10-23 08:48:00,53.5,41.6,29.89,NNW,333,0.0,0.0,64,0.00,,---,0.00,VWS V14.01,2013-10-23 15:48:00,
2013-10-23 08:53:00,54.5,41.8,29.89,NNW,333,0.0,0.0,62,0.00,,---,0.00,VWS V14.01,2013-10-23 15:53:00,
2013-10-23 08:58:00,55.5,41.9,29.89,NNW,333,0.0,0.0,60,0.00,,---,0.00,VWS V14.01,2013-10-23 15:58:00,
2013-10-23 09:00:00,47.0,37.7,29.88,NNW,342,0.0,0.0,70,0.00,,---,0.00,VWS V14.01,2013-10-23 16:00:00,
2013-10-23 09:03:00,56.4,42.3,29.89,NNW,333,0.0,0.0,59,0.00,,---,0.00,VWS V14.01,2013-10-23 16:03:00,
2013-10-23 09:08:00,57.6,42.5,29.89,NNW,333,0.0,0.0,57,0.00,,---,0.00,VWS V14.01,2013-10-23 16:08:00,
2013-10-23 09:13:00,59.0,42.4,29.89,NNW,331,0.0,0.0,54,0.00,,---,0.00,VWS V14.01,2013-10-23 16:13:00,
2013-10-23 09:15:00,48.4,39.4,29.89,NNW,342,0.0,0.0,71,0.00,,---,0.00,VWS V14.01,2013-10-23 16:15:00,
2013-10-23 09:18:00,59.8,42.7,29.89,NNW,331,0.0,0.0,53,0.00,,---,0.00,VWS V14.01,2013-10-23 16:18:00,
2013-10-23 09:22:00,60.6,42.9,29.89,NNW,331,0.0,0.0,52,0.00,,---,0.00,VWS V14.01,2013-10-23 16:22:00,
2013-10-23 09:27:00,61.3,43.0,29.89,NNW,331,0.0,0.0,51,0.00,,---,0.00,VWS V14.01,2013-10-23 16:27:00,
2013-10-23 09:30:00,50.4,41.0,29.89,NNW,333,0.0,0.0,70,0.00,,---,0.00,VWS V14.01,2013-10-23 16:30:00,
2013-10-23 09:32:00,62.0,43.7,29.89,NNW,331,0.0,0.0,51,0.00,,---,0.00,VWS V14.01,2013-10-23 16:32:00,
2013-10-23 09:37:00,62.7,43.8,29.89,NNW,333,5.0,5.0,50,0.00,,---,0.00,VWS V14.01,2013-10-23 16:37:00,
2013-10-23 09:42:00,63.8,43.2,29.89,NNW,344,6.0,6.0,47,0.00,,---,0.00,VWS V14.01,2013-10-23 16:42:00,
2013-10-23 09:45:00,53.3,41.5,29.89,NNW,333,0.0,0.0,64,0.00,,---,0.00,VWS V14.01,2013-10-23 16:45:00,
2013-10-23 09:47:00,64.7,42.9,29.89,NNW,342,2.0,7.0,45,0.00,,---,0.00,VWS V14.01,2013-10-23 16:47:00,
2013-10-23 09:52:00,65.6,43.7,29.89,NNW,341,0.0,7.0,45,0.00,,---,0.00,VWS V14.01,2013-10-23 16:52:00,
2013-10-23 09:57:00,66.3,43.8,29.89,NNW,342,2.0,8.0,44,0.00,,---,0.00,VWS V14.01,2013-10-23 16:57:00,
2013-10-23 10:00:00,56.2,42.5,29.89,NNW,333,0.0,0.0,60,0.00,,---,0.00,VWS V14.01,2013-10-23 17:00:00,
2013-10-23 10:02:00,67.1,43.3,29.89,NNW,342,4.0,8.0,42,0.00,,---,0.00,VWS V14.01,2013-10-23 17:02:00,
2013-10-23 10:07:00,67.9,44.0,29.89,NNW,341,2.0,8.0,42,0.00,,---,0.00,VWS V14.01,2013-10-23 17:07:00,
2013-10-23 10:12:00,68.7,44.1,29.89,NNW,328,8.0,9.0,41,0.00,,---,0.00,VWS V14.01,2013-10-23 17:12:00,
2013-10-23 10:15:00,59.7,42.6,29.89,NNW,331,0.0,0.0,53,0.00,,---,0.00,VWS V14.01,2013-10-23 17:15:00,
2013-10-23 10:17:00,69.5,42.8,29.89,North,5,8.0,8.0,38,0.00,,---,0.00,VWS V14.01,2013-10-23 17:17:00,
2013-10-23 10:22:00,70.3,42.1,29.89,NNW,343,8.0,13.0,36,0.00,,---,0.00,VWS V14.01,2013-10-23 17:22:00,
2013-10-23 10:27:00,70.9,41.9,29.89,NNW,344,7.0,13.0,35,0.00,,---,0.00,VWS V14.01,2013-10-23 17:27:00,
2013-10-23 10:30:00,61.8,43.5,29.89,NNW,331,0.0,0.0,51,0.00,,---,0.00,VWS V14.01,2013-10-23 17:30:00,
2013-10-23 10:32:00,71.3,41.5,29.89,NNW,336,12.0,12.0,34,0.00,,---,0.00,VWS V14.01,2013-10-23 17:32:00,
2013-10-23 10:37:00,71.7,41.9,29.89,North,355,2.0,12.0,34,0.00,,---,0.00,VWS V14.01,2013-10-23 17:37:00,
2013-10-23 10:42:00,72.0,42.1,29.89,NNW,342,9.0,12.0,34,0.00,,---,0.00,VWS V14.01,2013-10-23 17:42:00,
2013-10-23 10:45:00,64.5,42.7,29.89,NNW,340,6.0,7.0,45,0.00,,---,0.00,VWS V14.01,2013-10-23 17:45:00,
2013-10-23 10:47:00,72.4,42.5,29.89,North,355,7.0,8.0,34,0.00,,---,0.00,VWS V14.01,2013-10-23 17:47:00,
2013-10-23 10:52:00,72.8,42.8,29.89,NW,323,7.0,11.0,34,0.00,,---,0.00,VWS V14.01,2013-10-23 17:52:00,
2013-10-23 10:57:00,73.2,43.9,29.88,North,350,9.0,11.0,35,0.00,,---,0.00,VWS V14.01,2013-10-23 17:57:00,
2013-10-23 11:00:00,67.0,43.8,29.89,NNW,347,7.0,10.0,43,0.00,,---,0.00,VWS V14.01,2013-10-23 18:00:00,
2013-10-23 11:02:00,73.7,42.8,29.88,North,9,6.0,9.0,33,0.00,,---,0.00,VWS V14.01,2013-10-23 18:02:00,
2013-10-23 11:07:00,74.3,42.6,29.88,North,10,7.0,11.0,32,0.00,,---,0.00,VWS V14.01,2013-10-23 18:07:00,
2013-10-23 11:12:00,74.8,42.2,29.88,NNW,331,9.0,13.0,31,0.00,,---,0.00,VWS V14.01,2013-10-23 18:12:00,
2013-10-23 11:15:00,69.4,42.7,29.89,North,351,5.0,10.0,38,0.00,,---,0.00,VWS V14.01,2013-10-23 18:15:00,
2013-10-23 11:17:00,75.2,41.7,29.88,NW,305,12.0,12.0,30,0.00,,---,0.00,VWS V14.01,2013-10-23 18:17:00,
2013-10-23 11:22:00,75.4,41.8,29.88,NNW,337,10.0,12.0,30,0.00,,---,0.00,VWS V14.01,2013-10-23 18:22:00,
2013-10-23 11:27:00,75.8,42.2,29.88,NW,323,5.0,13.0,30,0.00,,---,0.00,VWS V14.01,2013-10-23 18:27:00,
2013-10-23 11:30:00,71.3,42.3,29.89,NNW,331,6.0,13.0,35,0.00,,---,0.00,VWS V14.01,2013-10-23 18:30:00,
2013-10-23 11:32:00,76.2,41.7,29.88,North,355,5.0,7.0,29,0.00,,---,0.00,VWS V14.01,2013-10-23 18:32:00,
2013-10-23 11:37:00,76.5,42.8,29.87,NW,317,9.0,10.0,30,0.00,,---,0.00,VWS V14.01,2013-10-23 18:37:00,
2013-10-23 11:42:00,77.0,44.1,29.88,NNW,333,10.0,11.0,31,0.00,,---,0.00,VWS V14.01,2013-10-23 18:42:00,
2013-10-23 11:45:00,72.4,42.5,29.88,NNW,333,5.0,12.0,34,0.00,,---,0.00,VWS V14.01,2013-10-23 18:45:00,
2013-10-23 11:47:00,77.6,42.9,29.87,NNW,330,9.0,13.0,29,0.00,,---,0.00,VWS V14.01,2013-10-23 18:47:00,
2013-10-23 11:52:00,78.0,43.2,29.87,NW,319,5.0,13.0,29,0.00,,---,0.00,VWS V14.01,2013-10-23 18:52:00,
2013-10-23 11:57:00,78.4,44.4,29.87,NNW,343,6.0,13.0,30,0.00,,---,0.00,VWS V14.01,2013-10-23 18:57:00,
2013-10-23 12:00:00,73.7,42.8,29.88,NNW,334,9.0,11.0,33,0.00,,---,0.00,VWS V14.01,2013-10-23 19:00:00,
2013-10-23 12:02:00,78.9,44.9,29.87,NW,315,8.0,10.0,30,0.00,,---,0.00,VWS V14.01,2013-10-23 19:02:00,
2013-10-23 12:07:00,79.4,44.4,29.86,North,355,5.0,11.0,29,0.00,,---,0.00,VWS V14.01,2013-10-23 19:07:00,
2013-10-23 12:12:00,79.9,44.8,29.86,NNW,342,6.0,11.0,29,0.00,,---,0.00,VWS V14.01,2013-10-23 19:12:00,
2013-10-23 12:15:00,75.1,41.6,29.88,NW,309,7.0,14.0,30,0.00,,---,0.00,VWS V14.01,2013-10-23 19:15:00,
2013-10-23 12:17:00,80.4,45.3,29.86,NNW,332,10.0,13.0,29,0.00,,---,0.00,VWS V14.01,2013-10-23 19:17:00,
2013-10-23 12:22:00,80.8,43.7,29.86,North,355,4.0,13.0,27,0.00,,---,0.00,VWS V14.01,2013-10-23 19:22:00,
2013-10-23 12:27:00,81.3,45.1,29.86,North,360,1.0,13.0,28,0.00,,---,0.00,VWS V14.01,2013-10-23 19:27:00,
2013-10-23 12:30:00,76.1,41.6,29.87,North,355,5.0,13.0,29,0.00,,---,0.00,VWS V14.01,2013-10-23 19:30:00,
2013-10-23 12:32:00,81.9,45.6,29.86,North,5,3.0,7.0,28,0.00,,---,0.00,VWS V14.01,2013-10-23 19:32:00,
2013-10-23 12:37:00,82.4,46.1,29.85,North,355,7.0,8.0,28,0.00,,---,0.00,VWS V14.01,2013-10-23 19:37:00,
2013-10-23 12:42:00,82.6,45.3,29.85,North,350,5.0,9.0,27,0.00,,---,0.00,VWS V14.01,2013-10-23 19:42:00,
2013-10-23 12:45:00,77.6,42.9,29.87,NNW,333,10.0,12.0,29,0.00,,---,0.00,VWS V14.01,2013-10-23 19:45:00,
2013-10-23 12:47:00,83.0,45.6,29.85,NNW,342,5.0,6.0,27,0.00,,---,0.00,VWS V14.01,2013-10-23 19:47:00,
2013-10-23 12:52:00,83.4,45.0,29.85,NNW,340,1.0,9.0,26,0.00,,---,0.00,VWS V14.01,2013-10-23 19:52:00,
2013-10-23 12:57:00,83.8,46.3,29.85,North,355,4.0,9.0,27,0.00,,---,0.00,VWS V14.01,2013-10-23 19:57:00,
2013-10-23 13:00:00,78.9,44.9,29.87,NW,320,10.0,13.0,30,0.00,,---,0.00,VWS V14.01,2013-10-23 20:00:00,
2013-10-23 13:02:00,84.3,44.7,29.85,North,360,3.0,4.0,25,0.00,,---,0.00,VWS V14.01,2013-10-23 20:02:00,
2013-10-23 13:07:00,84.5,44.9,29.85,North,355,5.0,8.0,25,0.00,,---,0.00,VWS V14.01,2013-10-23 20:07:00,
2013-10-23 13:12:00,84.7,44.0,29.85,North,355,5.0,8.0,24,0.00,,---,0.00,VWS V14.01,2013-10-23 20:12:00,
2013-10-23 13:15:00,80.4,45.3,29.87,North,350,10.0,11.0,29,0.00,,---,0.00,VWS V14.01,2013-10-23 20:15:00,
2013-10-23 13:17:00,85.1,45.4,29.84,NNW,347,4.0,7.0,25,0.00,,---,0.00,VWS V14.01,2013-10-23 20:17:00,
2013-10-23 13:22:00,85.4,45.6,29.84,NNW,348,4.0,7.0,25,0.00,,---,0.00,VWS V14.01,2013-10-23 20:22:00,
2013-10-23 13:27:00,85.6,45.8,29.83,NNW,348,4.0,7.0,25,0.00,,---,0.00,VWS V14.01,2013-10-23 20:27:00,
2013-10-23 13:30:00,81.9,45.6,29.86,NNW,344,6.0,13.0,28,0.00,,---,0.00,VWS V14.01,2013-10-23 20:30:00,
2013-10-23 13:32:00,86.0,46.1,29.84,North,349,2.0,2.0,25,0.00,,---,0.00,VWS V14.01,2013-10-23 20:32:00,
2013-10-23 13:37:00,86.1,45.1,29.83,NNW,331,5.0,7.0,24,0.00,,---,0.00,VWS V14.01,2013-10-23 20:37:00,
2013-10-23 13:42:00,86.4,45.4,29.83,North,9,4.0,7.0,24,0.00,,---,0.00,VWS V14.01,2013-10-23 20:42:00,
2013-10-23 13:45:00,83.0,45.6,29.85,North,350,6.0,9.0,27,0.00,,---,0.00,VWS V14.01,2013-10-23 20:45:00,
2013-10-23 13:47:00,86.7,45.6,29.82,North,360,4.0,4.0,24,0.00,,---,0.00,VWS V14.01,2013-10-23 20:47:00,
2013-10-23 13:52:00,87.2,46.0,29.83,North,360,2.0,5.0,24,0.00,,---,0.00,VWS V14.01,2013-10-23 20:52:00,
2013-10-23 13:57:00,87.5,44.0,29.82,NNW,343,5.0,8.0,22,0.00,,---,0.00,VWS V14.01,2013-10-23 20:57:00,
2013-10-23 14:00:00,84.3,44.7,29.85,North,360,4.0,9.0,25,0.00,,---,0.00,VWS V14.01,2013-10-23 21:00:00,
2013-10-23 14:02:00,87.8,45.4,29.82,NW,318,1.0,1.0,23,0.00,,---,0.00,VWS V14.01,2013-10-23 21:02:00,
2013-10-23 14:07:00,87.8,43.0,29.82,NW,307,2.0,9.0,21,0.00,,---,0.00,VWS V14.01,2013-10-23 21:07:00,
2013-10-23 14:12:00,87.9,44.3,29.82,NNW,339,8.0,9.0,22,0.00,,---,0.00,VWS V14.01,2013-10-23 21:12:00,
2013-10-23 14:15:00,85.1,45.4,29.84,NNW,347,7.0,8.0,25,0.00,,---,0.00,VWS V14.01,2013-10-23 21:15:00,
2013-10-23 14:17:00,88.1,44.5,29.81,NNW,340,5.0,6.0,22,0.00,,---,0.00,VWS V14.01,2013-10-23 21:17:00,
2013-10-23 14:22:00,88.4,43.5,29.81,NNW,330,1.0,8.0,21,0.00,,---,0.00,VWS V14.01,2013-10-23 21:22:00,
2013-10-23 14:27:00,88.6,44.9,29.81,NNW,338,2.0,8.0,22,0.00,,---,0.00,VWS V14.01,2013-10-23 21:27:00,
2013-10-23 14:30:00,86.0,46.1,29.84,North,349,2.0,7.0,25,0.00,,---,0.00,VWS V14.01,2013-10-23 21:30:00,
2013-10-23 14:32:00,88.9,45.2,29.80,NNW,333,0.0,8.0,22,0.00,,---,0.00,VWS V14.01,2013-10-23 21:32:00,
2013-10-23 14:36:00,89.1,44.1,29.80,NNW,342,0.0,7.0,21,0.00,,---,0.00,VWS V14.01,2013-10-23 21:36:00,
2013-10-23 14:41:00,89.2,42.9,29.80,NNW,342,4.0,7.0,20,0.00,,---,0.00,VWS V14.01,2013-10-23 21:41:00,
2013-10-23 14:45:00,86.8,45.7,29.83,North,360,4.0,7.0,24,0.00,,---,0.00,VWS V14.01,2013-10-23 21:45:00,
2013-10-23 14:46:00,89.2,40.2,29.80,NNW,343,0.0,7.0,18,0.00,,---,0.00,VWS V14.01,2013-10-23 21:46:00,
2013-10-23 14:51:00,89.4,41.8,29.80,NNW,343,1.0,6.0,19,0.00,,---,0.00,VWS V14.01,2013-10-23 21:51:00,
2013-10-23 14:56:00,89.6,41.9,29.80,NNW,343,2.0,7.0,19,0.00,,---,0.00,VWS V14.01,2013-10-23 21:56:00,
2013-10-23 15:00:00,87.8,45.4,29.82,NW,318,1.0,8.0,23,0.00,,---,0.00,VWS V14.01,2013-10-23 22:00:00,
2013-10-23 15:01:00,89.5,44.5,29.80,NNW,348,5.0,7.0,21,0.00,,---,0.00,VWS V14.01,2013-10-23 22:01:00,
2013-10-23 15:06:00,89.3,41.7,29.79,North,351,0.0,7.0,19,0.00,,---,0.00,VWS V14.01,2013-10-23 22:06:00,
2013-10-23 15:11:00,89.5,43.2,29.79,North,351,4.0,7.0,20,0.00,,---,0.00,VWS V14.01,2013-10-23 22:11:00,
2013-10-23 15:15:00,88.1,44.5,29.81,NNW,340,6.0,9.0,22,0.00,,---,0.00,VWS V14.01,2013-10-23 22:15:00,
2013-10-23 15:16:00,89.6,41.9,29.80,North,351,5.0,7.0,19,0.00,,---,0.00,VWS V14.01,2013-10-23 22:16:00,
2013-10-23 15:21:00,89.7,42.0,29.79,North,351,2.0,4.0,19,0.00,,---,0.00,VWS V14.01,2013-10-23 22:21:00,
2013-10-23 15:26:00,89.5,44.5,29.79,North,351,0.0,4.0,21,0.00,,---,0.00,VWS V14.01,2013-10-23 22:26:00,
2013-10-23 15:30:00,88.9,45.2,29.80,NNW,333,0.0,8.0,22,0.00,,---,0.00,VWS V14.01,2013-10-23 22:30:00,
2013-10-23 15:31:00,89.5,41.8,29.79,North,351,0.0,6.0,19,0.00,,---,0.00,VWS V14.01,2013-10-23 22:31:00,
2013-10-23 15:36:00,89.7,42.0,29.79,North,351,0.0,5.0,19,0.00,,---,0.00,VWS V14.01,2013-10-23 22:36:00,
2013-10-23 15:41:00,89.6,41.9,29.79,North,351,1.0,5.0,19,0.00,,---,0.00,VWS V14.01,2013-10-23 22:41:00,
2013-10-23 15:45:00,89.2,40.2,29.80,NNW,343,0.0,7.0,18,0.00,,---,0.00,VWS V14.01,2013-10-23 22:45:00,
2013-10-23 15:46:00,89.3,41.7,29.79,North,351,2.0,5.0,19,0.00,,---,0.00,VWS V14.01,2013-10-23 22:46:00,
2013-10-23 15:51:00,89.1,40.1,29.79,North,351,0.0,4.0,18,0.00,,---,0.00,VWS V14.01,2013-10-23 22:51:00,
2013-10-23 15:56:00,89.2,40.2,29.79,North,351,0.0,4.0,18,0.00,,---,0.00,VWS V14.01,2013-10-23 22:56:00,
2013-10-23 16:00:00,89.5,44.5,29.80,North,351,6.0,7.0,21,0.00,,---,0.00,VWS V14.01,2013-10-23 23:00:00,
2013-10-23 16:01:00,89.2,37.2,29.79,North,351,0.0,4.0,16,0.00,,---,0.00,VWS V14.01,2013-10-23 23:01:00,
2013-10-23 16:06:00,89.0,37.0,29.79,North,351,0.0,4.0,16,0.00,,---,0.00,VWS V14.01,2013-10-23 23:06:00,
2013-10-23 16:11:00,89.0,41.4,29.79,North,351,0.0,4.0,19,0.00,,---,0.00,VWS V14.01,2013-10-23 23:11:00,
2013-10-23 16:15:00,89.6,41.9,29.80,North,351,2.0,7.0,19,0.00,,---,0.00,VWS V14.01,2013-10-23 23:15:00,
2013-10-23 16:16:00,89.0,40.0,29.79,North,351,0.0,4.0,18,0.00,,---,0.00,VWS V14.01,2013-10-23 23:16:00,
2013-10-23 16:21:00,88.8,39.9,29.79,North,351,0.0,1.0,18,0.00,,---,0.00,VWS V14.01,2013-10-23 23:21:00,
2013-10-23 16:26:00,88.5,38.2,29.78,North,351,0.0,2.0,17,0.00,,---,0.00,VWS V14.01,2013-10-23 23:26:00,
2013-10-23 16:30:00,89.5,41.8,29.79,North,351,1.0,6.0,19,0.00,,---,0.00,VWS V14.01,2013-10-23 23:30:00,
2013-10-23 16:31:00,88.1,37.8,29.78,NW,326,5.0,6.0,17,0.00,,---,0.00,VWS V14.01,2013-10-23 23:31:00,
2013-10-23 16:36:00,87.3,37.2,29.78,NW,317,4.0,5.0,17,0.00,,---,0.00,VWS V14.01,2013-10-23 23:36:00,
2013-10-23 16:41:00,86.8,36.8,29.78,NW,317,1.0,5.0,17,0.00,,---,0.00,VWS V14.01,2013-10-23 23:41:00,
2013-10-23 16:45:00,89.3,41.7,29.79,North,351,2.0,5.0,19,0.00,,---,0.00,VWS V14.01,2013-10-23 23:45:00,
2013-10-23 16:46:00,86.4,37.9,29.78,NW,316,2.0,5.0,18,0.00,,---,0.00,VWS V14.01,2013-10-23 23:46:00,
2013-10-23 16:51:00,86.1,37.7,29.78,NW,317,1.0,5.0,18,0.00,,---,0.00,VWS V14.01,2013-10-23 23:51:00,
2013-10-23 16:56:00,85.9,38.9,29.77,NW,311,2.0,6.0,19,0.00,,---,0.00,VWS V14.01,2013-10-23 23:56:00,
2013-10-23 17:00:00,89.1,38.7,29.79,North,351,0.0,4.0,17,0.00,,---,0.00,VWS V14.01,2013-10-24 00:00:00,
2013-10-23 17:01:00,85.7,38.7,29.78,WNW,290,4.0,7.0,19,0.00,,---,0.00,VWS V14.01,2013-10-24 00:01:00,
2013-10-23 17:06:00,85.4,39.8,29.77,WNW,286,5.0,6.0,20,0.00,,---,0.00,VWS V14.01,2013-10-24 00:06:00,
2013-10-23 17:11:00,85.2,39.7,29.77,WNW,282,5.0,6.0,20,0.00,,---,0.00,VWS V14.01,2013-10-24 00:11:00,
2013-10-23 17:15:00,89.0,41.4,29.79,North,351,0.0,4.0,19,0.00,,---,0.00,VWS V14.01,2013-10-24 00:15:00,
2013-10-23 17:16:00,84.8,39.3,29.77,West,267,5.0,8.0,20,0.00,,---,0.00,VWS V14.01,2013-10-24 00:16:00,
2013-10-23 17:21:00,84.6,39.2,29.77,West,260,3.0,6.0,20,0.00,,---,0.00,VWS V14.01,2013-10-24 00:21:00,
2013-10-23 17:26:00,84.4,39.0,29.77,West,260,5.0,6.0,20,0.00,,---,0.00,VWS V14.01,2013-10-24 00:26:00,
2013-10-23 17:30:00,88.0,37.8,29.78,NW,317,4.0,6.0,17,0.00,,---,0.00,VWS V14.01,2013-10-24 00:30:00,
2013-10-23 17:31:00,84.1,38.7,29.77,West,260,4.0,6.0,20,0.00,,---,0.00,VWS V14.01,2013-10-24 00:31:00,
2013-10-23 17:36:00,83.8,38.5,29.77,West,260,3.0,4.0,20,0.00,,---,0.00,VWS V14.01,2013-10-24 00:36:00,
2013-10-23 17:41:00,83.4,39.4,29.77,West,260,3.0,4.0,21,0.00,,---,0.00,VWS V14.01,2013-10-24 00:41:00,
2013-10-23 17:45:00,86.3,37.8,29.78,NW,317,4.0,5.0,18,0.00,,---,0.00,VWS V14.01,2013-10-24 00:45:00,
2013-10-23 17:46:00,83.0,40.3,29.77,West,260,3.0,4.0,22,0.00,,---,0.00,VWS V14.01,2013-10-24 00:46:00,
2013-10-23 17:51:00,82.6,41.1,29.77,West,260,2.0,4.0,23,0.00,,---,0.00,VWS V14.01,2013-10-24 00:51:00,
2013-10-23 17:56:00,82.2,40.8,29.77,West,260,4.0,4.0,23,0.00,,---,0.00,VWS V14.01,2013-10-24 00:56:00,
2013-10-23 18:00:00,85.6,38.7,29.78,WNW,290,4.0,7.0,19,0.00,,---,0.00,VWS V14.01,2013-10-24 01:00:00,
2013-10-23 18:01:00,81.8,41.5,29.77,West,260,3.0,4.0,24,0.00,,---,0.00,VWS V14.01,2013-10-24 01:01:00,
2013-10-23 18:06:00,81.4,42.2,29.77,West,262,2.0,3.0,25,0.00,,---,0.00,VWS V14.01,2013-10-24 01:06:00,
2013-10-23 18:11:00,80.9,43.8,29.77,West,262,2.0,3.0,27,0.00,,---,0.00,VWS V14.01,2013-10-24 01:11:00,
2013-10-23 18:15:00,84.8,39.3,29.77,West,265,6.0,8.0,20,0.00,,---,0.00,VWS V14.01,2013-10-24 01:15:00,
2013-10-23 18:16:00,80.4,42.4,29.77,West,261,4.0,5.0,26,0.00,,---,0.00,VWS V14.01,2013-10-24 01:16:00,
2013-10-23 18:21:00,79.7,41.8,29.77,West,261,3.0,4.0,26,0.00,,---,0.00,VWS V14.01,2013-10-24 01:21:00,
2013-10-23 18:26:00,78.8,42.0,29.78,West,261,4.0,5.0,27,0.00,,---,0.00,VWS V14.01,2013-10-24 01:26:00,
2013-10-23 18:30:00,84.1,38.7,29.77,West,260,3.0,6.0,20,0.00,,---,0.00,VWS V14.01,2013-10-24 01:30:00,
2013-10-23 18:31:00,77.8,43.0,29.78,West,260,4.0,5.0,29,0.00,,---,0.00,VWS V14.01,2013-10-24 01:31:00,
2013-10-23 18:36:00,77.1,42.4,29.78,West,260,3.0,4.0,29,0.00,,---,0.00,VWS V14.01,2013-10-24 01:36:00,
2013-10-23 18:41:00,76.4,43.6,29.78,West,260,2.0,4.0,31,0.00,,---,0.00,VWS V14.01,2013-10-24 01:41:00,
2013-10-23 18:45:00,83.0,40.3,29.77,West,260,3.0,4.0,22,0.00,,---,0.00,VWS V14.01,2013-10-24 01:45:00,
2013-10-23 18:46:00,75.8,44.7,29.78,West,260,1.0,4.0,33,0.00,,---,0.00,VWS V14.01,2013-10-24 01:46:00,
2013-10-23 18:51:00,75.2,44.9,29.78,West,260,1.0,2.0,34,0.00,,---,0.00,VWS V14.01,2013-10-24 01:51:00,
2013-10-23 18:56:00,74.6,45.9,29.78,West,260,2.0,2.0,36,0.00,,---,0.00,VWS V14.01,2013-10-24 01:56:00,
2013-10-23 19:00:00,81.8,41.5,29.77,West,262,2.0,4.0,24,0.00,,---,0.00,VWS V14.01,2013-10-24 02:00:00,
2013-10-23 19:01:00,73.9,46.0,29.78,West,260,2.0,3.0,37,0.00,,---,0.00,VWS V14.01,2013-10-24 02:01:00,
2013-10-23 19:06:00,73.3,46.2,29.79,West,260,1.0,3.0,38,0.00,,---,0.00,VWS V14.01,2013-10-24 02:06:00,
2013-10-23 19:11:00,72.7,45.7,29.79,West,260,2.0,4.0,38,0.00,,---,0.00,VWS V14.01,2013-10-24 02:11:00,
2013-10-23 19:15:00,80.3,43.3,29.77,West,261,2.0,5.0,27,0.00,,---,0.00,VWS V14.01,2013-10-24 02:15:00,
2013-10-23 19:16:00,72.3,46.0,29.79,West,260,3.0,4.0,39,0.00,,---,0.00,VWS V14.01,2013-10-24 02:16:00,
2013-10-23 19:21:00,71.9,46.3,29.79,West,260,3.0,3.0,40,0.00,,---,0.00,VWS V14.01,2013-10-24 02:21:00,
2013-10-23 19:26:00,71.5,45.9,29.79,West,260,4.0,4.0,40,0.00,,---,0.00,VWS V14.01,2013-10-24 02:26:00,
2013-10-23 19:30:00,77.7,42.9,29.78,West,260,3.0,5.0,29,0.00,,---,0.00,VWS V14.01,2013-10-24 02:30:00,
2013-10-23 19:31:00,71.1,45.6,29.79,West,259,3.0,4.0,40,0.00,,---,0.00,VWS V14.01,2013-10-24 02:31:00,
2013-10-23 19:36:00,70.8,46.0,29.79,West,259,2.0,4.0,41,0.00,,---,0.00,VWS V14.01,2013-10-24 02:36:00,
2013-10-23 19:41:00,70.5,45.7,29.79,West,260,2.0,4.0,41,0.00,,---,0.00,VWS V14.01,2013-10-24 02:41:00,
2013-10-23 19:45:00,75.7,44.6,29.78,West,260,2.0,4.0,33,0.00,,---,0.00,VWS V14.01,2013-10-24 02:45:00,
2013-10-23 19:46:00,70.2,46.1,29.79,West,260,3.0,4.0,42,0.00,,---,0.00,VWS V14.01,2013-10-24 02:46:00,
2013-10-23 19:51:00,69.9,46.4,29.79,West,259,1.0,3.0,43,0.00,,---,0.00,VWS V14.01,2013-10-24 02:51:00,
2013-10-23 19:55:00,69.7,46.8,29.79,West,259,2.0,4.0,44,0.00,,---,0.00,VWS V14.01,2013-10-24 02:55:00,
2013-10-23 20:00:00,69.4,47.2,29.79,West,259,3.0,4.0,45,0.00,,---,0.00,VWS V14.01,2013-10-24 03:00:00,
2013-10-23 20:05:00,69.1,46.9,29.79,West,259,2.0,3.0,45,0.00,,---,0.00,VWS V14.01,2013-10-24 03:05:00,
2013-10-23 20:10:00,68.8,46.6,29.79,WSW,257,1.0,5.0,45,0.00,,---,0.00,VWS V14.01,2013-10-24 03:10:00,
2013-10-23 20:15:00,68.4,46.8,29.80,WSW,257,3.0,5.0,46,0.00,,---,0.00,VWS V14.01,2013-10-24 03:15:00,
2013-10-23 20:20:00,68.1,47.1,29.80,WSW,256,3.0,5.0,47,0.00,,---,0.00,VWS V14.01,2013-10-24 03:20:00,
2013-10-23 20:25:00,67.8,47.4,29.80,WSW,252,3.0,5.0,48,0.00,,---,0.00,VWS V14.01,2013-10-24 03:25:00,
2013-10-23 20:30:00,67.4,47.0,29.79,SW,227,3.0,5.0,48,0.00,,---,0.00,VWS V14.01,2013-10-24 03:30:00,
2013-10-23 20:35:00,66.9,46.0,29.80,SSW,193,2.0,4.0,47,0.00,,---,0.00,VWS V14.01,2013-10-24 03:35:00,
2013-10-23 20:40:00,66.2,46.0,29.79,South,172,5.0,5.0,48,0.00,,---,0.00,VWS V14.01,2013-10-24 03:40:00,
2013-10-23 20:45:00,65.4,45.8,29.80,SSE,149,6.0,6.0,49,0.00,,---,0.00,VWS V14.01,2013-10-24 03:45:00,
2013-10-23 20:50:00,64.5,45.5,29.80,SE,133,1.0,7.0,50,0.00,,---,0.00,VWS V14.01,2013-10-24 03:50:00,
2013-10-23 20:55:00,63.7,45.8,29.80,SE,130,4.0,7.0,52,0.00,,---,0.00,VWS V14.01,2013-10-24 03:55:00,
2013-10-23 21:00:00,63.1,46.2,29.80,SE,130,4.0,7.0,54,0.00,,---,0.00,VWS V14.01,2013-10-24 04:00:00,
2013-10-23 21:01:00,63.0,46.1,29.80,SE,130,4.0,7.0,54,0.00,,---,0.00,VWS V14.01,2013-10-24 04:01:00,
2013-10-23 21:06:00,62.5,46.1,29.80,SE,129,2.0,6.0,55,0.00,,---,0.00,VWS V14.01,2013-10-24 04:06:00,
2013-10-23 21:11:00,62.1,46.2,29.81,SE,129,2.0,6.0,56,0.00,,---,0.00,VWS V14.01,2013-10-24 04:11:00,
2013-10-23 21:15:00,68.4,46.8,29.80,WSW,256,1.0,5.0,46,0.00,,---,0.00,VWS V14.01,2013-10-24 04:15:00,
2013-10-23 21:16:00,61.8,46.0,29.81,SE,129,4.0,6.0,56,0.00,,---,0.00,VWS V14.01,2013-10-24 04:16:00,
2013-10-23 21:21:00,61.5,46.1,29.81,SE,129,0.0,2.0,57,0.00,,---,0.00,VWS V14.01,2013-10-24 04:21:00,
2013-10-23 21:26:00,61.3,46.0,29.81,SE,129,2.0,5.0,57,0.00,,---,0.00,VWS V14.01,2013-10-24 04:26:00,
2013-10-23 21:30:00,67.3,47.0,29.80,SW,225,3.0,5.0,48,0.00,,---,0.00,VWS V14.01,2013-10-24 04:30:00,
2013-10-23 21:31:00,61.1,45.3,29.81,SE,129,4.0,5.0,56,0.00,,---,0.00,VWS V14.01,2013-10-24 04:31:00,
2013-10-23 21:36:00,60.9,44.6,29.81,SE,129,2.0,6.0,55,0.00,,---,0.00,VWS V14.01,2013-10-24 04:36:00,
2013-10-23 21:41:00,60.7,44.0,29.81,SE,129,4.0,6.0,54,0.00,,---,0.00,VWS V14.01,2013-10-24 04:41:00,
2013-10-23 21:45:00,65.2,45.6,29.80,SE,142,6.0,7.0,49,0.00,,---,0.00,VWS V14.01,2013-10-24 04:45:00,
2013-10-23 21:46:00,60.5,44.3,29.81,SE,130,5.0,6.0,55,0.00,,---,0.00,VWS V14.01,2013-10-24 04:46:00,
2013-10-23 21:51:00,60.3,45.0,29.81,SE,130,5.0,6.0,57,0.00,,---,0.00,VWS V14.01,2013-10-24 04:51:00,
2013-10-23 21:56:00,60.0,44.7,29.82,SE,130,6.0,7.0,57,0.00,,---,0.00,VWS V14.01,2013-10-24 04:56:00,
2013-10-23 22:00:00,59.7,44.5,29.81,SE,135,5.0,7.0,57,0.00,,---,0.00,VWS V14.01,2013-10-24 05:00:00,
2013-10-23 22:15:00,58.9,44.2,29.82,SE,135,5.0,7.0,58,0.00,,---,0.00,VWS V14.01,2013-10-24 05:15:00,
2013-10-23 22:30:00,57.9,43.7,29.82,SE,135,4.0,5.0,59,0.00,,---,0.00,VWS V14.01,2013-10-24 05:30:00,
2013-10-23 22:45:00,57.2,45.2,29.83,SE,135,3.0,5.0,64,0.00,,---,0.00,VWS V14.01,2013-10-24 05:45:00,
2013-10-23 23:00:00,56.9,44.0,29.83,SE,135,4.0,7.0,62,0.00,,---,0.00,VWS V14.01,2013-10-24 06:00:00,
2013-10-23 23:15:00,55.8,44.6,29.83,SE,135,4.0,7.0,66,0.00,,---,0.00,VWS V14.01,2013-10-24 06:15:00,
2013-10-23 23:30:00,55.0,44.7,29.83,SE,135,3.0,6.0,68,0.00,,---,0.00,VWS V14.01,2013-10-24 06:30:00,
2013-10-23 23:45:00,54.4,44.1,29.83,SE,135,3.0,6.0,68,0.00,,---,0.00,VWS V14.01,2013-10-24 06:45:00,